sensor_id;sensor_type;location;lat;lon;timestamp;pressure;altitude;pressure_sealevel;temperature;humidity
3178;BME280;38141;42.666;23.344;2023-02-08T00:15:43;96198.34;;;-3.63;100.00
3178;BME280;38141;42.666;23.344;2023-02-08T00:18:11;96124.56;;;-4.11;100.00
3178;BME280;38141;42.666;23.344;2023-02-08T00:20:38;96175.75;;;-3.80;100.00
3178;BME280;38141;42.666;23.344;2023-02-08T00:56:44;96041.00;;;-4.69;100.00
3178;BME280;38141;42.666;23.344;2023-02-08T01:40:35;96149.72;;;-4.04;100.00
3178;BME280;38141;42.666;23.344;2023-02-08T01:45:38;96242.16;;;-3.30;100.00
3178;BME280;38141;42.666;23.344;2023-02-08T02:01:13;96213.13;;;-3.67;100.00
3178;BME280;38141;42.666;23.344;2023-02-08T02:03:41;96223.25;;;-3.53;100.00
3178;BME280;38141;42.666;23.344;2023-02-08T02:06:11;96208.25;;;-3.85;100.00
3178;BME280;38141;42.666;23.344;2023-02-08T02:08:43;96247.44;;;-3.72;100.00
3178;BME280;38141;42.666;23.344;2023-02-08T02:11:12;96196.09;;;-3.81;100.00
3178;BME280;38141;42.666;23.344;2023-02-08T02:13:39;96223.28;;;-3.48;100.00
3178;BME280;38141;42.666;23.344;2023-02-08T02:16:07;96222.72;;;-3.55;100.00
3178;BME280;38141;42.666;23.344;2023-02-08T02:18:35;96234.16;;;-3.40;100.00
3178;BME280;38141;42.666;23.344;2023-02-08T02:21:39;96241.63;;;-3.27;100.00
3178;BME280;38141;42.666;23.344;2023-02-08T02:37:24;96267.81;;;-3.30;100.00
3178;BME280;38141;42.666;23.344;2023-02-08T02:58:02;96138.31;;;-4.46;100.00
3178;BME280;38141;42.666;23.344;2023-02-08T03:39:19;96251.88;;;-3.40;100.00
3178;BME280;38141;42.666;23.344;2023-02-08T03:41:50;96121.88;;;-4.53;100.00
3178;BME280;38141;42.666;23.344;2023-02-08T03:44:21;96121.81;;;-4.26;100.00
3178;BME280;38141;42.666;23.344;2023-02-08T03:46:51;96179.97;;;-3.84;100.00
3178;BME280;38141;42.666;23.344;2023-02-08T03:49:23;96288.25;;;-3.21;100.00
3178;BME280;38141;42.666;23.344;2023-02-08T03:51:56;96242.06;;;-3.50;100.00
3178;BME280;38141;42.666;23.344;2023-02-08T03:54:27;96156.31;;;-4.06;100.00
3178;BME280;38141;42.666;23.344;2023-02-08T03:57:00;96274.91;;;-3.36;100.00
3178;BME280;38141;42.666;23.344;2023-02-08T03:59:33;96202.66;;;-3.88;100.00
3178;BME280;38141;42.666;23.344;2023-02-08T04:02:03;96173.97;;;-4.12;100.00
3178;BME280;38141;42.666;23.344;2023-02-08T04:04:34;96285.69;;;-3.47;100.00
3178;BME280;38141;42.666;23.344;2023-02-08T04:07:02;96314.28;;;-3.44;100.00
3178;BME280;38141;42.666;23.344;2023-02-08T04:09:30;96303.66;;;-3.49;100.00
3178;BME280;38141;42.666;23.344;2023-02-08T04:11:57;96197.03;;;-4.34;100.00
3178;BME280;38141;42.666;23.344;2023-02-08T04:14:24;96271.63;;;-3.90;100.00
3178;BME280;38141;42.666;23.344;2023-02-08T04:34:59;96269.78;;;-4.48;100.00
3178;BME280;38141;42.666;23.344;2023-02-08T04:40:39;96309.94;;;-3.92;100.00
3178;BME280;38141;42.666;23.344;2023-02-08T04:43:06;96311.84;;;-4.15;100.00
3178;BME280;38141;42.666;23.344;2023-02-08T04:45:33;96298.50;;;-3.98;100.00
3178;BME280;38141;42.666;23.344;2023-02-08T04:51:23;96318.47;;;-4.12;100.00
3178;BME280;38141;42.666;23.344;2023-02-08T04:53:50;96320.31;;;-4.13;100.00
3178;BME280;38141;42.666;23.344;2023-02-08T04:56:16;96266.22;;;-4.59;100.00
3178;BME280;38141;42.666;23.344;2023-02-08T04:58:46;96374.16;;;-4.19;100.00
3178;BME280;38141;42.666;23.344;2023-02-08T05:01:14;96219.28;;;-5.27;100.00
3178;BME280;38141;42.666;23.344;2023-02-08T05:03:41;96255.03;;;-4.93;100.00
3178;BME280;38141;42.666;23.344;2023-02-08T05:06:08;96310.66;;;-4.72;100.00
3178;BME280;38141;42.666;23.344;2023-02-08T05:08:37;96364.88;;;-4.43;100.00
3178;BME280;38141;42.666;23.344;2023-02-08T05:13:39;96204.63;;;-5.78;100.00
3178;BME280;38141;42.666;23.344;2023-02-08T05:16:12;96258.19;;;-5.34;100.00
3178;BME280;38141;42.666;23.344;2023-02-08T05:18:39;96375.22;;;-4.41;100.00
3178;BME280;38141;42.666;23.344;2023-02-08T05:34:03;96384.88;;;-4.25;100.00
3178;BME280;38141;42.666;23.344;2023-02-08T05:36:30;96359.59;;;-4.43;100.00
3178;BME280;38141;42.666;23.344;2023-02-08T05:38:56;96279.22;;;-5.01;100.00
3178;BME280;38141;42.666;23.344;2023-02-08T05:41:23;96327.66;;;-4.85;100.00
3178;BME280;38141;42.666;23.344;2023-02-08T05:43:50;96405.78;;;-4.24;100.00
3178;BME280;38141;42.666;23.344;2023-02-08T05:46:17;96263.31;;;-5.06;100.00
3178;BME280;38141;42.666;23.344;2023-02-08T05:48:44;96355.13;;;-4.42;100.00
3178;BME280;38141;42.666;23.344;2023-02-08T05:51:13;96405.16;;;-4.09;100.00
3178;BME280;38141;42.666;23.344;2023-02-08T05:53:40;96396.09;;;-4.18;100.00
3178;BME280;38141;42.666;23.344;2023-02-08T05:59:32;96364.47;;;-4.08;100.00
3178;BME280;38141;42.666;23.344;2023-02-08T06:07:26;96431.69;;;-3.72;100.00
3178;BME280;38141;42.666;23.344;2023-02-08T06:12:31;96419.28;;;-3.13;100.00
3178;BME280;38141;42.666;23.344;2023-02-08T06:14:58;96379.44;;;-2.96;100.00
3178;BME280;38141;42.666;23.344;2023-02-08T06:17:25;96369.25;;;-2.73;100.00
3178;BME280;38141;42.666;23.344;2023-02-08T06:19:52;96209.97;;;-3.64;100.00
3178;BME280;38141;42.666;23.344;2023-02-08T06:22:18;96406.38;;;-2.05;100.00
3178;BME280;38141;42.666;23.344;2023-02-08T06:24:47;96372.72;;;-1.95;100.00
3178;BME280;38141;42.666;23.344;2023-02-08T06:27:14;96398.31;;;-1.33;97.61
3178;BME280;38141;42.666;23.344;2023-02-08T06:29:40;96399.34;;;-0.94;91.70
3178;BME280;38141;42.666;23.344;2023-02-08T06:32:07;96401.19;;;-0.79;87.69
3178;BME280;38141;42.666;23.344;2023-02-08T06:37:56;96411.72;;;-0.28;81.93
3178;BME280;38141;42.666;23.344;2023-02-08T06:43:00;96418.47;;;-1.37;88.83
3178;BME280;38141;42.666;23.344;2023-02-08T07:00:48;96247.09;;;-0.69;72.39
3178;BME280;38141;42.666;23.344;2023-02-08T07:03:15;96445.44;;;0.84;67.42
3178;BME280;38141;42.666;23.344;2023-02-08T07:05:42;96303.63;;;0.69;63.86
3178;BME280;38141;42.666;23.344;2023-02-08T07:08:15;96360.69;;;1.20;62.42
3178;BME280;38141;42.666;23.344;2023-02-08T07:10:42;96326.91;;;1.16;61.72
3178;BME280;38141;42.666;23.344;2023-02-08T07:13:09;96277.13;;;0.82;58.19
3178;BME280;38141;42.666;23.344;2023-02-08T07:15:37;96386.72;;;1.81;57.20
3178;BME280;38141;42.666;23.344;2023-02-08T07:18:05;96380.06;;;1.78;55.93
3178;BME280;38141;42.666;23.344;2023-02-08T07:20:34;96476.16;;;3.20;54.06
3178;BME280;38141;42.666;23.344;2023-02-08T07:23:01;96386.94;;;2.64;53.86
3178;BME280;38141;42.666;23.344;2023-02-08T07:25:29;96442.72;;;2.05;54.84
3178;BME280;38141;42.666;23.344;2023-02-08T07:27:55;96424.38;;;1.51;56.46
3178;BME280;38141;42.666;23.344;2023-02-08T07:30:22;96487.59;;;2.88;53.65
3178;BME280;38141;42.666;23.344;2023-02-08T07:32:49;96459.56;;;5.00;51.55
3178;BME280;38141;42.666;23.344;2023-02-08T07:35:17;96455.31;;;9.91;40.68
3178;BME280;38141;42.666;23.344;2023-02-08T07:37:53;96427.81;;;7.85;39.93
3178;BME280;38141;42.666;23.344;2023-02-08T07:40:20;96488.16;;;4.14;46.70
3178;BME280;38141;42.666;23.344;2023-02-08T07:42:54;96380.53;;;4.75;46.23
3178;BME280;38141;42.666;23.344;2023-02-08T07:45:21;96447.25;;;5.88;45.60
3178;BME280;38141;42.666;23.344;2023-02-08T07:47:48;96472.28;;;5.08;45.21
3178;BME280;38141;42.666;23.344;2023-02-08T07:50:17;96443.31;;;5.19;45.25
3178;BME280;38141;42.666;23.344;2023-02-08T07:52:44;96465.22;;;5.57;44.29
3178;BME280;38141;42.666;23.344;2023-02-08T07:55:12;96463.72;;;5.73;44.43
3178;BME280;38141;42.666;23.344;2023-02-08T07:57:41;96426.75;;;5.39;44.79
3178;BME280;38141;42.666;23.344;2023-02-08T08:00:09;96457.16;;;6.10;43.67
3178;BME280;38141;42.666;23.344;2023-02-08T08:02:51;96461.06;;;6.43;42.65
3178;BME280;38141;42.666;23.344;2023-02-08T08:05:19;96443.44;;;7.02;42.11
3178;BME280;38141;42.666;23.344;2023-02-08T08:07:46;96453.34;;;7.79;40.43
3178;BME280;38141;42.666;23.344;2023-02-08T08:10:13;96403.19;;;7.95;39.58
3178;BME280;38141;42.666;23.344;2023-02-08T08:12:40;96445.00;;;8.10;38.90
3178;BME280;38141;42.666;23.344;2023-02-08T08:15:07;96435.03;;;8.02;39.17
3178;BME280;38141;42.666;23.344;2023-02-08T08:17:34;96438.06;;;8.68;38.10
3178;BME280;38141;42.666;23.344;2023-02-08T08:20:00;96441.09;;;9.16;37.67
3178;BME280;38141;42.666;23.344;2023-02-08T08:22:28;96453.19;;;12.29;34.07
3178;BME280;38141;42.666;23.344;2023-02-08T08:24:55;96455.66;;;19.03;26.41
3178;BME280;38141;42.666;23.344;2023-02-08T08:27:23;96454.47;;;21.67;23.47
3178;BME280;38141;42.666;23.344;2023-02-08T08:29:49;96470.78;;;21.14;22.62
3178;BME280;38141;42.666;23.344;2023-02-08T08:32:16;96470.38;;;21.15;22.37
3178;BME280;38141;42.666;23.344;2023-02-08T08:34:43;96474.34;;;21.52;21.41
3178;BME280;38141;42.666;23.344;2023-02-08T08:37:10;96485.78;;;22.18;22.42
3178;BME280;38141;42.666;23.344;2023-02-08T08:39:38;96472.47;;;24.58;19.97
3178;BME280;38141;42.666;23.344;2023-02-08T08:42:05;96480.44;;;24.92;19.70
3178;BME280;38141;42.666;23.344;2023-02-08T08:44:32;96455.63;;;22.04;20.88
3178;BME280;38141;42.666;23.344;2023-02-08T08:46:59;96458.06;;;17.51;24.74
3178;BME280;38141;42.666;23.344;2023-02-08T08:49:27;96470.00;;;17.94;25.98
3178;BME280;38141;42.666;23.344;2023-02-08T08:51:55;96442.78;;;17.43;25.21
3178;BME280;38141;42.666;23.344;2023-02-08T08:54:22;96468.91;;;18.31;24.32
3178;BME280;38141;42.666;23.344;2023-02-08T08:56:51;96423.09;;;18.20;24.12
3178;BME280;38141;42.666;23.344;2023-02-08T08:59:17;96480.31;;;19.18;24.00
3178;BME280;38141;42.666;23.344;2023-02-08T09:01:44;96383.81;;;16.84;25.00
3178;BME280;38141;42.666;23.344;2023-02-08T09:04:11;96449.56;;;16.14;25.49
3178;BME280;38141;42.666;23.344;2023-02-08T09:06:38;96492.47;;;16.54;25.95
3178;BME280;38141;42.666;23.344;2023-02-08T09:09:06;96500.28;;;16.96;25.07
3178;BME280;38141;42.666;23.344;2023-02-08T09:11:35;96478.53;;;22.01;20.61
3178;BME280;38141;42.666;23.344;2023-02-08T09:14:04;96493.19;;;24.34;19.19
3178;BME280;38141;42.666;23.344;2023-02-08T09:16:32;96493.31;;;20.95;21.10
3178;BME280;38141;42.666;23.344;2023-02-08T09:19:00;96501.84;;;19.40;21.87
3178;BME280;38141;42.666;23.344;2023-02-08T09:21:48;96495.50;;;16.08;24.59
3178;BME280;38141;42.666;23.344;2023-02-08T09:24:15;96488.16;;;12.19;29.71
3178;BME280;38141;42.666;23.344;2023-02-08T09:26:48;96469.44;;;14.95;27.80
3178;BME280;38141;42.666;23.344;2023-02-08T09:29:16;96478.78;;;11.33;30.30
3178;BME280;38141;42.666;23.344;2023-02-08T09:31:45;96542.31;;;10.05;31.99
3178;BME280;38141;42.666;23.344;2023-02-08T09:34:12;96364.47;;;10.47;30.04
3178;BME280;38141;42.666;23.344;2023-02-08T09:36:39;96488.94;;;8.02;35.03
3178;BME280;38141;42.666;23.344;2023-02-08T09:39:10;96428.03;;;6.60;35.04
3178;BME280;38141;42.666;23.344;2023-02-08T09:44:40;96500.19;;;6.27;37.80
3178;BME280;38141;42.666;23.344;2023-02-08T09:47:15;96522.28;;;7.20;36.81
3178;BME280;38141;42.666;23.344;2023-02-08T09:49:53;96504.38;;;6.42;37.38
3178;BME280;38141;42.666;23.344;2023-02-08T09:52:24;96413.63;;;5.68;37.64
3178;BME280;38141;42.666;23.344;2023-02-08T09:54:56;96466.66;;;5.41;39.13
3178;BME280;38141;42.666;23.344;2023-02-08T09:57:27;96345.38;;;4.41;39.30
3178;BME280;38141;42.666;23.344;2023-02-08T10:00:00;96480.56;;;6.18;39.76
3178;BME280;38141;42.666;23.344;2023-02-08T10:02:30;96395.19;;;6.72;36.91
3178;BME280;38141;42.666;23.344;2023-02-08T10:05:02;96461.19;;;7.12;37.21
3178;BME280;38141;42.666;23.344;2023-02-08T10:07:30;96456.84;;;6.68;37.53
3178;BME280;38141;42.666;23.344;2023-02-08T10:10:00;96469.69;;;6.23;37.80
3178;BME280;38141;42.666;23.344;2023-02-08T10:12:42;96460.38;;;7.29;37.18
3178;BME280;38141;42.666;23.344;2023-02-08T10:15:24;96464.97;;;7.11;36.89
3178;BME280;38141;42.666;23.344;2023-02-08T10:18:10;96400.38;;;6.59;37.12
3178;BME280;38141;42.666;23.344;2023-02-08T10:20:55;96381.34;;;4.98;39.05
3178;BME280;38141;42.666;23.344;2023-02-08T10:23:50;96503.41;;;4.82;40.94
3178;BME280;38141;42.666;23.344;2023-02-08T10:26:28;96356.94;;;4.64;40.21
3178;BME280;38141;42.666;23.344;2023-02-08T10:29:18;96479.00;;;6.17;38.43
3178;BME280;38141;42.666;23.344;2023-02-08T10:32:05;96425.94;;;6.31;37.86
3178;BME280;38141;42.666;23.344;2023-02-08T10:34:42;96301.16;;;5.89;36.87
3178;BME280;38141;42.666;23.344;2023-02-08T10:37:16;96388.50;;;6.86;36.20
3178;BME280;38141;42.666;23.344;2023-02-08T10:39:46;96479.81;;;7.77;36.29
3178;BME280;38141;42.666;23.344;2023-02-08T10:42:17;96473.66;;;7.77;35.25
3178;BME280;38141;42.666;23.344;2023-02-08T10:44:59;96478.34;;;6.59;37.20
3178;BME280;38141;42.666;23.344;2023-02-08T10:47:43;96490.44;;;6.31;38.08
3178;BME280;38141;42.666;23.344;2023-02-08T10:50:19;96455.41;;;5.08;38.94
3178;BME280;38141;42.666;23.344;2023-02-08T10:52:48;96387.72;;;4.66;39.01
3178;BME280;38141;42.666;23.344;2023-02-08T10:55:17;96454.31;;;4.59;39.03
3178;BME280;38141;42.666;23.344;2023-02-08T10:57:48;96288.22;;;3.46;39.64
3178;BME280;38141;42.666;23.344;2023-02-08T11:00:20;96498.75;;;3.92;40.80
3178;BME280;38141;42.666;23.344;2023-02-08T11:02:51;96456.44;;;4.08;41.04
3178;BME280;38141;42.666;23.344;2023-02-08T11:05:31;96476.66;;;4.00;41.04
3178;BME280;38141;42.666;23.344;2023-02-08T11:08:07;96484.59;;;4.46;41.34
3178;BME280;38141;42.666;23.344;2023-02-08T11:10:35;96445.81;;;4.43;40.90
3178;BME280;38141;42.666;23.344;2023-02-08T11:13:05;96443.03;;;4.48;42.08
3178;BME280;38141;42.666;23.344;2023-02-08T11:15:44;96420.56;;;3.95;42.87
3178;BME280;38141;42.666;23.344;2023-02-08T11:18:19;96422.31;;;2.94;44.72
3178;BME280;38141;42.666;23.344;2023-02-08T11:20:50;96392.16;;;1.95;46.12
3178;BME280;38141;42.666;23.344;2023-02-08T11:23:21;96341.25;;;2.10;46.97
3178;BME280;38141;42.666;23.344;2023-02-08T11:25:51;96444.47;;;2.57;47.79
3178;BME280;38141;42.666;23.344;2023-02-08T11:28:24;96500.94;;;2.69;47.98
3178;BME280;38141;42.666;23.344;2023-02-08T11:30:57;96460.06;;;2.50;47.05
3178;BME280;38141;42.666;23.344;2023-02-08T11:33:27;96375.03;;;1.53;48.75
3178;BME280;38141;42.666;23.344;2023-02-08T11:36:01;96410.72;;;1.57;48.93
3178;BME280;38141;42.666;23.344;2023-02-08T11:38:41;96446.81;;;2.21;49.45
3178;BME280;38141;42.666;23.344;2023-02-08T11:41:15;96491.47;;;1.87;50.52
3178;BME280;38141;42.666;23.344;2023-02-08T11:43:57;96446.28;;;1.48;49.97
3178;BME280;38141;42.666;23.344;2023-02-08T11:46:27;96483.66;;;1.71;50.10
3178;BME280;38141;42.666;23.344;2023-02-08T11:48:56;96445.06;;;1.35;49.74
3178;BME280;38141;42.666;23.344;2023-02-08T11:51:28;96430.69;;;1.60;49.77
3178;BME280;38141;42.666;23.344;2023-02-08T11:53:59;96370.94;;;1.61;48.55
3178;BME280;38141;42.666;23.344;2023-02-08T11:56:31;96455.19;;;1.91;49.44
3178;BME280;38141;42.666;23.344;2023-02-08T11:59:04;96537.22;;;2.04;49.37
3178;BME280;38141;42.666;23.344;2023-02-08T12:01:34;96390.53;;;1.22;49.03
3178;BME280;38141;42.666;23.344;2023-02-08T12:04:05;96385.59;;;1.06;49.97
3178;BME280;38141;42.666;23.344;2023-02-08T12:06:58;96474.88;;;1.37;50.60
3178;BME280;38141;42.666;23.344;2023-02-08T12:09:50;96330.06;;;0.21;51.00
3178;BME280;38141;42.666;23.344;2023-02-08T12:12:24;96435.56;;;0.90;52.48
3178;BME280;38141;42.666;23.344;2023-02-08T12:15:04;96506.41;;;1.30;52.56
3178;BME280;38141;42.666;23.344;2023-02-08T12:17:47;96390.88;;;0.43;52.19
3178;BME280;38141;42.666;23.344;2023-02-08T12:20:32;96502.88;;;1.01;51.82
3178;BME280;38141;42.666;23.344;2023-02-08T12:23:13;96487.31;;;0.79;52.14
3178;BME280;38141;42.666;23.344;2023-02-08T12:25:55;96485.38;;;0.89;52.87
3178;BME280;38141;42.666;23.344;2023-02-08T12:28:35;96499.59;;;0.70;53.04
3178;BME280;38141;42.666;23.344;2023-02-08T12:31:06;96497.53;;;0.57;52.15
3178;BME280;38141;42.666;23.344;2023-02-08T12:33:49;96483.69;;;1.04;51.84
3178;BME280;38141;42.666;23.344;2023-02-08T12:36:42;96406.03;;;0.48;51.39
3178;BME280;38141;42.666;23.344;2023-02-08T12:39:28;96461.56;;;1.03;49.58
3178;BME280;38141;42.666;23.344;2023-02-08T12:42:28;96486.03;;;1.44;49.65
3178;BME280;38141;42.666;23.344;2023-02-08T12:45:30;96387.50;;;0.71;49.61
3178;BME280;38141;42.666;23.344;2023-02-08T12:48:12;96481.09;;;1.27;49.12
3178;BME280;38141;42.666;23.344;2023-02-08T12:50:47;96287.47;;;-0.18;49.83
3178;BME280;38141;42.666;23.344;2023-02-08T12:53:22;96480.97;;;0.70;50.56
3178;BME280;38141;42.666;23.344;2023-02-08T12:55:57;96501.44;;;0.74;50.36
3178;BME280;38141;42.666;23.344;2023-02-08T12:58:28;96416.03;;;0.22;50.69
3178;BME280;38141;42.666;23.344;2023-02-08T13:01:01;96472.56;;;0.48;50.59
3178;BME280;38141;42.666;23.344;2023-02-08T13:03:39;96320.13;;;-0.61;49.84
3178;BME280;38141;42.666;23.344;2023-02-08T13:06:15;96481.34;;;0.48;50.46
3178;BME280;38141;42.666;23.344;2023-02-08T13:08:49;96479.97;;;0.56;50.29
3178;BME280;38141;42.666;23.344;2023-02-08T13:11:28;96530.47;;;0.76;49.77
3178;BME280;38141;42.666;23.344;2023-02-08T13:13:59;96483.34;;;0.17;49.62
3178;BME280;38141;42.666;23.344;2023-02-08T13:16:32;96453.50;;;0.30;49.53
3178;BME280;38141;42.666;23.344;2023-02-08T13:21:55;96445.38;;;0.56;48.61
3178;BME280;38141;42.666;23.344;2023-02-08T13:24:32;96517.41;;;0.79;48.34
3178;BME280;38141;42.666;23.344;2023-02-08T13:27:02;96421.47;;;0.45;48.74
3178;BME280;38141;42.666;23.344;2023-02-08T13:29:32;96478.31;;;0.65;47.98
3178;BME280;38141;42.666;23.344;2023-02-08T13:32:03;96524.31;;;0.80;47.75
3178;BME280;38141;42.666;23.344;2023-02-08T13:34:37;96476.34;;;0.36;49.06
3178;BME280;38141;42.666;23.344;2023-02-08T13:37:18;96365.06;;;-0.75;49.26
3178;BME280;38141;42.666;23.344;2023-02-08T13:40:17;96320.13;;;-0.66;48.81
3178;BME280;38141;42.666;23.344;2023-02-08T13:43:02;96423.94;;;-0.27;49.40
3178;BME280;38141;42.666;23.344;2023-02-08T13:45:43;96491.41;;;-0.08;51.06
3178;BME280;38141;42.666;23.344;2023-02-08T13:48:15;96355.78;;;-0.93;51.47
3178;BME280;38141;42.666;23.344;2023-02-08T13:50:54;96446.53;;;-0.35;51.67
3178;BME280;38141;42.666;23.344;2023-02-08T13:56:40;96511.63;;;-0.17;52.16
3178;BME280;38141;42.666;23.344;2023-02-08T13:59:35;96525.13;;;0.22;52.07
3178;BME280;38141;42.666;23.344;2023-02-08T14:02:19;96485.59;;;-0.25;52.79
3178;BME280;38141;42.666;23.344;2023-02-08T14:04:49;96455.13;;;-0.78;52.78
3178;BME280;38141;42.666;23.344;2023-02-08T14:07:39;96530.50;;;-0.04;52.22
3178;BME280;38141;42.666;23.344;2023-02-08T14:10:23;96417.38;;;-0.70;53.17
3178;BME280;38141;42.666;23.344;2023-02-08T14:13:00;96553.38;;;-0.18;52.91
3178;BME280;38141;42.666;23.344;2023-02-08T14:15:31;96465.47;;;-0.62;53.19
3178;BME280;38141;42.666;23.344;2023-02-08T14:18:00;96408.34;;;-1.45;53.30
3178;BME280;38141;42.666;23.344;2023-02-08T14:20:31;96549.91;;;-0.08;54.03
3178;BME280;38141;42.666;23.344;2023-02-08T14:23:02;96461.50;;;-0.59;53.53
3178;BME280;38141;42.666;23.344;2023-02-08T14:30:52;96372.22;;;-1.92;55.92
3178;BME280;38141;42.666;23.344;2023-02-08T14:33:22;96444.38;;;-1.80;56.74
3178;BME280;38141;42.666;23.344;2023-02-08T14:35:54;96333.91;;;-2.31;57.04
3178;BME280;38141;42.666;23.344;2023-02-08T14:41:09;96429.59;;;-1.45;57.44
3178;BME280;38141;42.666;23.344;2023-02-08T14:52:25;96362.88;;;-2.14;58.47
3178;BME280;38141;42.666;23.344;2023-02-08T14:57:43;96559.00;;;-0.70;59.49
3178;BME280;38141;42.666;23.344;2023-02-08T15:02:46;96461.69;;;-1.52;59.67
3178;BME280;38141;42.666;23.344;2023-02-08T15:05:23;96462.44;;;-1.66;59.55
3178;BME280;38141;42.666;23.344;2023-02-08T15:07:57;96409.50;;;-2.23;60.22
3178;BME280;38141;42.666;23.344;2023-02-08T15:10:28;96494.84;;;-1.49;60.86
3178;BME280;38141;42.666;23.344;2023-02-08T15:12:59;96598.00;;;-1.01;62.20
3178;BME280;38141;42.666;23.344;2023-02-08T15:23:20;96582.72;;;-1.36;65.29
3178;BME280;38141;42.666;23.344;2023-02-08T15:25:54;96522.44;;;-2.12;64.36
3178;BME280;38141;42.666;23.344;2023-02-08T15:28:26;96545.34;;;-1.96;63.73
3178;BME280;38141;42.666;23.344;2023-02-08T15:30:56;96540.41;;;-1.67;64.67
3178;BME280;38141;42.666;23.344;2023-02-08T15:33:24;96611.31;;;-1.53;64.30
3178;BME280;38141;42.666;23.344;2023-02-08T15:36:05;96478.22;;;-2.02;64.24
3178;BME280;38141;42.666;23.344;2023-02-08T15:38:37;96536.50;;;-1.50;62.58
3178;BME280;38141;42.666;23.344;2023-02-08T15:41:07;96438.78;;;-2.50;61.85
3178;BME280;38141;42.666;23.344;2023-02-08T15:43:39;96612.09;;;-1.57;66.00
3178;BME280;38141;42.666;23.344;2023-02-08T15:46:17;96439.59;;;-2.87;66.24
3178;BME280;38141;42.666;23.344;2023-02-08T15:48:46;96536.47;;;-2.17;64.33
3178;BME280;38141;42.666;23.344;2023-02-08T15:51:15;96519.16;;;-2.30;63.85
3178;BME280;38141;42.666;23.344;2023-02-08T15:53:48;96477.41;;;-2.54;62.52
3178;BME280;38141;42.666;23.344;2023-02-08T15:56:17;96476.63;;;-2.55;62.90
3178;BME280;38141;42.666;23.344;2023-02-08T15:58:48;96545.88;;;-1.94;63.00
3178;BME280;38141;42.666;23.344;2023-02-08T16:01:18;96598.22;;;-2.16;64.46
3178;BME280;38141;42.666;23.344;2023-02-08T16:03:46;96586.78;;;-2.22;65.83
3178;BME280;38141;42.666;23.344;2023-02-08T16:06:20;96622.19;;;-2.01;66.66
3178;BME280;38141;42.666;23.344;2023-02-08T16:08:51;96498.81;;;-2.61;65.86
3178;BME280;38141;42.666;23.344;2023-02-08T16:11:22;96506.03;;;-2.51;65.60
3178;BME280;38141;42.666;23.344;2023-02-08T16:13:51;96601.03;;;-1.96;66.34
3178;BME280;38141;42.666;23.344;2023-02-08T16:16:20;96631.47;;;-1.99;66.42
3178;BME280;38141;42.666;23.344;2023-02-08T16:18:55;96476.56;;;-2.97;68.04
3178;BME280;38141;42.666;23.344;2023-02-08T16:21:28;96602.91;;;-2.29;69.05
3178;BME280;38141;42.666;23.344;2023-02-08T16:24:03;96569.09;;;-2.48;71.29
3178;BME280;38141;42.666;23.344;2023-02-08T16:26:32;96573.97;;;-2.35;71.26
3178;BME280;38141;42.666;23.344;2023-02-08T16:32:44;96605.03;;;-1.89;68.92
3178;BME280;38141;42.666;23.344;2023-02-08T16:35:11;96611.94;;;-1.88;69.22
3178;BME280;38141;42.666;23.344;2023-02-08T16:37:39;96585.56;;;-2.09;68.49
3178;BME280;38141;42.666;23.344;2023-02-08T16:43:23;96612.44;;;-1.91;67.66
3178;BME280;38141;42.666;23.344;2023-02-08T16:53:36;96568.66;;;-2.35;67.61
3178;BME280;38141;42.666;23.344;2023-02-08T16:56:05;96472.78;;;-3.06;67.37
3178;BME280;38141;42.666;23.344;2023-02-08T16:58:33;96636.50;;;-2.34;68.61
3178;BME280;38141;42.666;23.344;2023-02-08T17:06:58;96573.78;;;-2.60;69.72
3178;BME280;38141;42.666;23.344;2023-02-08T17:09:28;96478.25;;;-3.44;69.86
3178;BME280;38141;42.666;23.344;2023-02-08T17:11:58;96622.06;;;-2.16;69.93
3178;BME280;38141;42.666;23.344;2023-02-08T17:17:47;96579.66;;;-2.53;69.11
3178;BME280;38141;42.666;23.344;2023-02-08T17:20:20;96500.59;;;-3.03;69.32
3178;BME280;38141;42.666;23.344;2023-02-08T17:22:48;96613.16;;;-2.69;68.85
3178;BME280;38141;42.666;23.344;2023-02-08T17:25:24;96593.00;;;-2.43;69.26
3178;BME280;38141;42.666;23.344;2023-02-08T17:27:54;96536.00;;;-2.83;69.94
3178;BME280;38141;42.666;23.344;2023-02-08T17:30:24;96527.06;;;-3.03;70.88
3178;BME280;38141;42.666;23.344;2023-02-08T17:32:51;96548.09;;;-3.19;70.70
3178;BME280;38141;42.666;23.344;2023-02-08T17:35:21;96472.16;;;-3.45;71.19
3178;BME280;38141;42.666;23.344;2023-02-08T17:37:51;96628.19;;;-2.48;71.35
3178;BME280;38141;42.666;23.344;2023-02-08T17:40:20;96569.97;;;-3.01;71.39
3178;BME280;38141;42.666;23.344;2023-02-08T17:42:47;96495.03;;;-3.61;71.79
3178;BME280;38141;42.666;23.344;2023-02-08T17:45:18;96587.09;;;-2.82;71.67
3178;BME280;38141;42.666;23.344;2023-02-08T17:47:48;96431.91;;;-3.79;72.57
3178;BME280;38141;42.666;23.344;2023-02-08T17:50:16;96571.97;;;-3.13;73.67
3178;BME280;38141;42.666;23.344;2023-02-08T17:52:44;96555.03;;;-3.13;74.30
3178;BME280;38141;42.666;23.344;2023-02-08T17:55:13;96501.22;;;-3.50;74.74
3178;BME280;38141;42.666;23.344;2023-02-08T17:57:41;96587.88;;;-3.08;74.42
3178;BME280;38141;42.666;23.344;2023-02-08T18:00:10;96463.41;;;-3.72;75.99
3178;BME280;38141;42.666;23.344;2023-02-08T18:02:41;96599.72;;;-2.89;76.45
3178;BME280;38141;42.666;23.344;2023-02-08T18:05:12;96529.56;;;-3.45;78.19
3178;BME280;38141;42.666;23.344;2023-02-08T18:07:38;96633.00;;;-2.72;79.24
3178;BME280;38141;42.666;23.344;2023-02-08T18:10:07;96463.41;;;-3.77;77.89
3178;BME280;38141;42.666;23.344;2023-02-08T18:12:34;96544.84;;;-3.26;79.99
3178;BME280;38141;42.666;23.344;2023-02-08T18:15:03;96530.06;;;-3.48;79.90
3178;BME280;38141;42.666;23.344;2023-02-08T18:17:30;96633.22;;;-2.78;81.05
3178;BME280;38141;42.666;23.344;2023-02-08T18:19:58;96634.19;;;-2.84;83.57
3178;BME280;38141;42.666;23.344;2023-02-08T18:22:25;96629.53;;;-2.77;83.85
3178;BME280;38141;42.666;23.344;2023-02-08T18:24:54;96610.06;;;-3.15;84.52
3178;BME280;38141;42.666;23.344;2023-02-08T18:27:21;96634.94;;;-2.89;88.27
3178;BME280;38141;42.666;23.344;2023-02-08T18:29:49;96619.75;;;-2.98;86.04
3178;BME280;38141;42.666;23.344;2023-02-08T18:32:17;96615.03;;;-2.96;83.93
3178;BME280;38141;42.666;23.344;2023-02-08T18:34:47;96504.88;;;-3.78;83.83
3178;BME280;38141;42.666;23.344;2023-02-08T18:37:15;96509.91;;;-3.98;84.50